首页
METAR-TAF:

METAR-TAF

机场 :

阿图罗·梅里诺·贝尼特斯准将国际机场

圣地亚哥-德智利, 智利

纬度: 33-23S, 经度: 070-47W, 海拔: 475米

当前天气观测

该预报发布于8分钟前的10:00 UTC
风速2节,风向多变
温度 1°C
湿度 93%
气压 1020 hPa
能見度: 5000
轻雾

METAR: SCEL 151000Z VRB02KT 5000 BR NSC 01/M00 Q1020 NOSIG

时间: 06:08 (10:08 UTC)

预报

该预报发布于4小时和0分钟前的06:08 UTC
预报有效从15日的 07点(UTC)到 16日的 06点(UTC)
风速2节,风向多变
能見度: 7000
成为
从 15日的 07点(UTC)到 15日的 09点(UTC)
能見度: 5000
轻雾
短暂存在
从 15日的 09点(UTC)到 15日的 12点(UTC)
能見度: 0800
散云层高于200英尺
碎片雾
成为
从 15日的 13点(UTC)到 15日的 15点(UTC)
风速6节,风向
能見度: 8000
成为
从 15日的 16点(UTC)到 15日的 18点(UTC)
能见度10公里或以上
1500米以下无云,无积雨云

TAF: SCEL 150608Z 1507/1606 VRB02KT 7000 NSC TX15/1519Z TN01/1511Z BECMG 1507/1509 5000 BR TEMPO 1509/1512 0800 BCFG SCT002 BECMG 1513/1515 17006KT 8000 NSC BECMG 1516/1518 CAVOK

超过4000个机场的气象观测和天气预报(METAR&TAF报告)。

可查询的气象台以黄色和红色小点在地图上表示。

将鼠标移到小点上方,可查看气象台名称。

然后点击查看天气观测和预报。

如需切换地图:点击带黑十字的绿色按钮放大地图;点击带横线的绿色按钮缩小地图;或者点击绿色箭头查看邻近地区的地图。


METAR-TAF: